Time;durP1;ratioP1;P1;durP2;ratioP2;P2;SDS_P1;SDS_P2;PMS_P1;PMS_P2;Temp;Humidity;BMP_temperature;BMP_pressure;BME280_temperature;BME280_humidity;BME280_pressure;Samples;Min_cycle;Max_cycle;Signal;HPM_P1;HPM_P2
2021/11/05 00:01:04;;;;;;;13.52;8.23;;;3.70;99.90;;;;;;5018960;28;20041;-72
2021/11/05 00:03:34;;;;;;;10.32;7.60;;;3.80;99.90;;;;;;5029938;28;20037;-72
2021/11/05 00:06:01;;;;;;;12.73;7.97;;;3.80;99.90;;;;;;5038058;28;20048;-72
2021/11/05 00:08:32;;;;;;;11.30;7.65;;;3.80;99.90;;;;;;5017771;28;20046;-72
2021/11/05 00:11:04;;;;;;;11.80;8.10;;;3.70;99.90;;;;;;5035227;28;20073;-73
2021/11/05 00:13:36;;;;;;;12.70;9.05;;;3.70;99.90;;;;;;5036139;28;20458;-73
2021/11/05 00:16:03;;;;;;;10.68;7.68;;;3.60;99.90;;;;;;5036410;28;20053;-72
2021/11/05 00:18:35;;;;;;;11.43;8.40;;;3.60;99.90;;;;;;5019504;28;20537;-72
2021/11/05 00:21:07;;;;;;;12.63;9.20;;;3.60;99.90;;;;;;5018276;28;20049;-72
2021/11/05 00:23:39;;;;;;;12.00;7.68;;;3.50;99.90;;;;;;5035802;28;20038;-72
2021/11/05 00:26:11;;;;;;;12.52;8.15;;;3.50;99.90;;;;;;5034452;28;20049;-73
2021/11/05 00:28:43;;;;;;;11.70;8.25;;;3.50;99.90;;;;;;5035202;28;20049;-72
2021/11/05 00:31:10;;;;;;;12.15;7.93;;;3.40;99.90;;;;;;5035374;28;20050;-72
2021/11/05 00:33:42;;;;;;;12.75;8.43;;;3.40;99.90;;;;;;5015525;28;20041;-72
2021/11/05 00:36:14;;;;;;;12.30;7.85;;;3.40;99.90;;;;;;5015363;28;20045;-73
2021/11/05 00:38:46;;;;;;;13.80;8.80;;;3.40;99.90;;;;;;5032128;28;20049;-73
2021/11/05 00:41:18;;;;;;;12.02;8.65;;;3.50;99.90;;;;;;5033938;28;20519;-72
2021/11/05 00:43:45;;;;;;;12.85;9.00;;;3.50;99.90;;;;;;5032445;28;20646;-72
2021/11/05 00:46:17;;;;;;;15.02;8.65;;;3.40;99.90;;;;;;5032514;28;20750;-72
2021/11/05 00:48:44;;;;;;;12.57;8.57;;;3.40;99.90;;;;;;5032143;28;20049;-72
2021/11/05 00:51:15;;;;;;;12.90;8.18;;;3.40;99.90;;;;;;5015674;28;20057;-72
2021/11/05 00:53:47;;;;;;;16.08;9.20;;;3.40;99.90;;;;;;5015346;28;20072;-73
2021/11/05 00:56:19;;;;;;;15.65;9.40;;;3.50;99.90;;;;;;5023509;28;20111;-72
2021/11/05 00:58:46;;;;;;;13.90;8.82;;;3.50;99.90;;;;;;5033785;28;20041;-73
2021/11/05 01:01:13;;;;;;;12.15;8.40;;;3.50;99.90;;;;;;5027334;28;20049;-73
2021/11/05 01:03:40;;;;;;;14.68;8.95;;;3.50;99.90;;;;;;5010245;28;20049;-72
2021/11/05 01:06:14;;;;;;;13.80;8.65;;;3.60;99.90;;;;;;5033498;28;20040;-72
2021/11/05 01:08:41;;;;;;;12.40;8.80;;;3.60;99.90;;;;;;5035226;28;20044;-72
2021/11/05 01:11:13;;;;;;;12.88;7.88;;;3.70;99.90;;;;;;5052847;28;20033;-72
2021/11/05 01:13:46;;;;;;;10.05;7.43;;;3.80;99.90;;;;;;5052808;28;20415;-72
2021/11/05 01:16:13;;;;;;;12.90;8.18;;;3.80;99.90;;;;;;5034544;28;20043;-72
2021/11/05 01:18:47;;;;;;;9.57;6.95;;;3.90;99.90;;;;;;5034576;28;20392;-72
2021/11/05 01:21:19;;;;;;;11.38;7.95;;;3.80;99.90;;;;;;5018940;28;21919;-72
2021/11/05 01:23:46;;;;;;;12.00;7.88;;;3.90;99.90;;;;;;5034793;28;20487;-72
2021/11/05 01:26:13;;;;;;;12.65;8.27;;;3.90;99.90;;;;;;5034620;28;20049;-72
2021/11/05 01:28:45;;;;;;;11.20;7.75;;;3.80;99.90;;;;;;5052730;28;20044;-72
2021/11/05 01:31:21;;;;;;;10.30;7.70;;;3.80;99.90;;;;;;5034640;28;20052;-72
2021/11/05 01:33:53;;;;;;;12.10;7.68;;;3.80;99.90;;;;;;5034640;28;20071;-72
2021/11/05 01:36:20;;;;;;;13.18;8.73;;;3.80;99.90;;;;;;5052242;28;20408;-72
2021/11/05 01:38:52;;;;;;;13.63;8.20;;;3.80;99.90;;;;;;5052443;28;20056;-72
2021/11/05 01:41:24;;;;;;;11.80;8.45;;;3.80;99.90;;;;;;5034468;28;20048;-72
2021/11/05 01:43:52;;;;;;;12.50;8.93;;;3.80;99.90;;;;;;5052115;28;20041;-72
2021/11/05 01:46:23;;;;;;;13.18;8.73;;;3.80;99.90;;;;;;5033971;28;20049;-72
2021/11/05 01:48:57;;;;;;;14.45;9.90;;;3.80;99.90;;;;;;5052027;28;20053;-72
2021/11/05 01:51:29;;;;;;;15.10;10.02;;;3.80;99.90;;;;;;5052240;28;20106;-72
2021/11/05 01:54:01;;;;;;;13.52;8.43;;;3.90;99.90;;;;;;5052031;28;20064;-72
2021/11/05 01:56:33;;;;;;;13.98;8.85;;;3.90;99.90;;;;;;5018605;28;20139;-72
2021/11/05 01:59:05;;;;;;;12.40;8.55;;;3.90;99.90;;;;;;5033845;28;20059;-72
2021/11/05 02:01:34;;;;;;;14.10;10.10;;;3.90;99.90;;;;;;5033680;28;20045;-72
2021/11/05 02:04:01;;;;;;;15.25;10.13;;;3.90;99.90;;;;;;5033678;28;20528;-72
2021/11/05 02:06:33;;;;;;;13.88;9.00;;;3.90;99.90;;;;;;5052149;28;20044;-72
2021/11/05 02:09:05;;;;;;;12.20;9.18;;;4.00;99.90;;;;;;5018113;28;20124;-72
2021/11/05 02:11:32;;;;;;;13.10;9.95;;;3.90;99.90;;;;;;5051218;28;20519;-72
2021/11/05 02:14:06;;;;;;;14.23;9.63;;;3.90;99.90;;;;;;5034437;28;20045;-72
2021/11/05 02:16:40;;;;;;;12.77;9.52;;;3.90;99.90;;;;;;5018212;28;20119;-72
2021/11/05 02:19:14;;;;;;;14.45;10.05;;;3.90;99.90;;;;;;5033871;28;20056;-72
2021/11/05 02:21:42;;;;;;;17.42;11.20;;;3.90;99.90;;;;;;5033830;28;20098;-72
2021/11/05 02:24:10;;;;;;;17.50;10.20;;;3.90;99.90;;;;;;5032867;28;20059;-72
2021/11/05 02:26:44;;;;;;;14.35;10.93;;;3.90;99.90;;;;;;5051506;28;20448;-72
2021/11/05 02:29:12;;;;;;;16.00;11.52;;;3.90;99.90;;;;;;5033393;28;20045;-72
2021/11/05 02:31:40;;;;;;;15.10;9.98;;;3.90;99.90;;;;;;5050799;28;20407;-72
2021/11/05 02:34:07;;;;;;;13.48;9.23;;;4.00;99.90;;;;;;5032751;28;20056;-72
2021/11/05 02:36:35;;;;;;;13.38;10.40;;;3.90;99.90;;;;;;5033272;28;20052;-72
2021/11/05 02:39:08;;;;;;;13.70;10.43;;;4.00;99.90;;;;;;5050770;28;20041;-72
2021/11/05 02:41:45;;;;;;;16.17;11.23;;;4.00;99.90;;;;;;5033523;28;20075;-72
2021/11/05 02:44:17;;;;;;;14.90;10.43;;;4.00;99.90;;;;;;5051118;28;20403;-72
2021/11/05 02:46:50;;;;;;;16.17;10.63;;;4.00;99.90;;;;;;5033767;28;20045;-72
2021/11/05 02:49:22;;;;;;;16.33;11.52;;;4.10;99.90;;;;;;5033739;28;20040;-72
2021/11/05 02:51:50;;;;;;;15.15;10.60;;;4.10;99.90;;;;;;5034528;28;20051;-72
2021/11/05 02:54:22;;;;;;;14.25;11.27;;;4.10;99.90;;;;;;5017667;28;20060;-72
2021/11/05 02:56:49;;;;;;;13.35;10.07;;;4.10;99.90;;;;;;5032935;28;20060;-72
2021/11/05 02:59:21;;;;;;;15.25;11.05;;;4.10;99.90;;;;;;5050792;28;20037;-72
2021/11/05 03:01:48;;;;;;;13.88;9.63;;;4.10;99.90;;;;;;5032724;28;20072;-72
2021/11/05 03:04:16;;;;;;;13.65;9.95;;;4.20;99.90;;;;;;5032767;28;20045;-72
2021/11/05 03:06:49;;;;;;;13.20;9.73;;;4.20;99.90;;;;;;5033964;28;20033;-72
2021/11/05 03:09:20;;;;;;;13.38;9.63;;;4.20;99.90;;;;;;5033718;28;20037;-72
2021/11/05 03:11:52;;;;;;;21.42;11.93;;;4.20;99.90;;;;;;5032575;28;20052;-72
2021/11/05 03:14:24;;;;;;;13.98;9.40;;;4.20;99.90;;;;;;5033491;28;20049;-72
2021/11/05 03:16:58;;;;;;;15.43;10.65;;;4.20;99.90;;;;;;5032793;28;20096;-72
2021/11/05 03:19:29;;;;;;;15.10;10.95;;;4.20;99.90;;;;;;5032862;28;20057;-72
2021/11/05 03:22:02;;;;;;;14.32;10.80;;;4.20;99.90;;;;;;5032622;28;20046;-72
2021/11/05 03:24:34;;;;;;;14.27;10.23;;;4.20;99.90;;;;;;5032292;28;20048;-72
2021/11/05 03:27:01;;;;;;;14.68;10.43;;;4.20;99.90;;;;;;5032611;28;20041;-72
2021/11/05 03:29:33;;;;;;;15.35;10.75;;;4.20;99.90;;;;;;5032695;28;20045;-72
2021/11/05 03:32:05;;;;;;;16.08;10.68;;;4.20;99.90;;;;;;5050535;28;20052;-72
2021/11/05 03:34:32;;;;;;;15.77;11.57;;;4.20;99.90;;;;;;5032520;28;20041;-72
2021/11/05 03:36:59;;;;;;;17.20;10.80;;;4.20;99.90;;;;;;5050434;28;20575;-72
2021/11/05 03:39:31;;;;;;;17.65;10.75;;;4.20;99.90;;;;;;5016980;28;20052;-72
2021/11/05 03:42:04;;;;;;;14.73;9.73;;;4.20;99.90;;;;;;5032430;28;20491;-72
2021/11/05 03:44:31;;;;;;;13.95;10.00;;;4.20;99.90;;;;;;5032455;28;20055;-72
2021/11/05 03:47:04;;;;;;;19.90;14.82;;;4.20;99.90;;;;;;5033531;28;20033;-72
2021/11/05 03:49:36;;;;;;;14.38;10.27;;;4.20;99.90;;;;;;5032762;28;20045;-72
2021/11/05 03:52:03;;;;;;;15.23;10.45;;;4.20;99.90;;;;;;5016172;28;20053;-72
2021/11/05 03:54:30;;;;;;;16.58;11.60;;;4.20;99.90;;;;;;5032226;28;20061;-72
2021/11/05 03:57:03;;;;;;;15.55;11.40;;;4.20;99.90;;;;;;5031765;28;20041;-72
2021/11/05 03:59:35;;;;;;;18.02;12.13;;;4.10;99.90;;;;;;5050445;28;20209;-72
2021/11/05 04:02:02;;;;;;;16.27;12.07;;;4.10;99.90;;;;;;5049884;28;20048;-72
2021/11/05 04:04:34;;;;;;;18.17;12.10;;;4.10;99.90;;;;;;5049778;28;20041;-72
2021/11/05 04:07:06;;;;;;;14.25;10.98;;;4.10;99.90;;;;;;5050377;28;20033;-72
2021/11/05 04:09:38;;;;;;;15.27;11.00;;;4.10;99.90;;;;;;5036309;28;20076;-72
2021/11/05 04:12:10;;;;;;;16.55;11.48;;;4.20;99.90;;;;;;5036902;28;20508;-72
2021/11/05 04:14:42;;;;;;;15.00;11.00;;;4.20;99.90;;;;;;5020022;28;20049;-72
2021/11/05 04:17:14;;;;;;;19.20;12.43;;;4.20;99.90;;;;;;5020394;28;20049;-72
2021/11/05 04:19:46;;;;;;;15.55;10.98;;;4.20;99.90;;;;;;5020401;28;20107;-72
2021/11/05 04:22:12;;;;;;;17.73;11.93;;;4.20;99.90;;;;;;5019409;28;20041;-72
2021/11/05 04:24:44;;;;;;;19.48;13.02;;;4.20;99.90;;;;;;5025041;28;20046;-72
2021/11/05 04:27:16;;;;;;;17.92;10.48;;;4.20;99.90;;;;;;5052220;28;20037;-72
2021/11/05 04:29:48;;;;;;;17.83;12.05;;;4.20;99.90;;;;;;5035782;28;20044;-72
2021/11/05 04:32:20;;;;;;;15.45;10.90;;;4.30;99.90;;;;;;5018941;28;20547;-72
2021/11/05 04:34:52;;;;;;;16.92;11.60;;;4.30;99.90;;;;;;5018493;28;20050;-72
2021/11/05 04:37:19;;;;;;;15.82;10.82;;;4.30;99.90;;;;;;5048521;28;20044;-72
2021/11/05 04:39:51;;;;;;;15.95;11.18;;;4.30;99.90;;;;;;5032152;28;20048;-73
2021/11/05 04:42:18;;;;;;;15.65;11.25;;;4.30;99.90;;;;;;5015924;28;20606;-73
2021/11/05 04:44:50;;;;;;;16.92;11.98;;;4.30;99.90;;;;;;5016025;28;20123;-72
2021/11/05 04:47:22;;;;;;;15.40;11.25;;;4.40;99.90;;;;;;5024716;28;20041;-72
2021/11/05 04:49:54;;;;;;;14.63;10.35;;;4.40;99.90;;;;;;5032659;28;20047;-72
2021/11/05 04:52:21;;;;;;;19.67;12.32;;;4.30;99.90;;;;;;5052212;28;20454;-72
2021/11/05 04:54:53;;;;;;;17.65;11.25;;;4.30;99.90;;;;;;5034398;28;20049;-72
2021/11/05 04:57:25;;;;;;;19.02;12.52;;;4.30;99.90;;;;;;5035599;28;20037;-72
2021/11/05 04:59:57;;;;;;;19.38;12.20;;;4.30;99.90;;;;;;5019247;28;20045;-72
2021/11/05 05:02:29;;;;;;;18.77;12.23;;;4.30;99.90;;;;;;5035406;28;20041;-72
2021/11/05 05:04:57;;;;;;;16.50;11.45;;;4.30;99.90;;;;;;5034764;28;20492;-72
2021/11/05 05:07:23;;;;;;;18.02;11.68;;;4.30;99.90;;;;;;5018394;28;20396;-72
2021/11/05 05:09:56;;;;;;;19.05;12.80;;;4.30;99.90;;;;;;5018940;28;20041;-72
2021/11/05 05:12:27;;;;;;;17.17;11.40;;;4.30;99.90;;;;;;5034352;28;20056;-72
2021/11/05 05:14:54;;;;;;;16.13;11.55;;;4.30;99.90;;;;;;5034053;28;20049;-72
2021/11/05 05:17:26;;;;;;;16.15;11.20;;;4.30;99.90;;;;;;5018529;28;20069;-72
2021/11/05 05:19:58;;;;;;;16.98;11.63;;;4.30;99.90;;;;;;5034020;28;20442;-72
2021/11/05 05:22:30;;;;;;;17.60;12.27;;;4.30;99.90;;;;;;5052568;28;20037;-72
2021/11/05 05:25:04;;;;;;;17.83;11.88;;;4.30;99.90;;;;;;5051695;28;20052;-73
2021/11/05 05:27:31;;;;;;;18.55;12.10;;;4.40;99.90;;;;;;5034452;28;20055;-72
2021/11/05 05:30:04;;;;;;;16.60;11.43;;;4.40;99.90;;;;;;5020556;28;20388;-72
2021/11/05 05:32:36;;;;;;;15.25;11.68;;;4.40;99.90;;;;;;5035560;28;20052;-72
2021/11/05 05:35:09;;;;;;;16.85;11.40;;;4.40;99.90;;;;;;5035013;28;20048;-72
2021/11/05 05:37:41;;;;;;;16.58;11.18;;;4.40;99.90;;;;;;5052325;28;20052;-72
2021/11/05 05:40:09;;;;;;;16.13;11.18;;;4.50;99.90;;;;;;5052363;28;20049;-72
2021/11/05 05:42:36;;;;;;;16.83;11.38;;;4.50;99.90;;;;;;5033968;28;20046;-72
2021/11/05 05:45:09;;;;;;;14.27;10.15;;;4.50;99.90;;;;;;5035020;28;20041;-72
2021/11/05 05:47:38;;;;;;;15.02;10.35;;;4.50;99.90;;;;;;5034112;28;20041;-72
2021/11/05 05:50:15;;;;;;;16.42;11.07;;;4.50;99.90;;;;;;5051986;28;20061;-72
2021/11/05 05:52:47;;;;;;;16.55;11.05;;;4.50;99.90;;;;;;5052070;28;20347;-72
2021/11/05 05:55:15;;;;;;;13.98;9.95;;;4.50;99.90;;;;;;5033892;28;20519;-72
2021/11/05 05:57:47;;;;;;;15.52;10.38;;;4.50;99.90;;;;;;5051897;28;20045;-72
2021/11/05 06:00:19;;;;;;;14.75;10.50;;;4.50;99.90;;;;;;5035072;28;20052;-72
2021/11/05 06:02:46;;;;;;;15.00;10.00;;;4.40;99.90;;;;;;5033701;28;20048;-72
2021/11/05 06:05:15;;;;;;;16.13;11.57;;;4.40;99.90;;;;;;5051471;28;20045;-72
2021/11/05 06:07:47;;;;;;;16.80;10.68;;;4.40;99.90;;;;;;5033817;28;20049;-72
2021/11/05 06:10:14;;;;;;;13.55;9.82;;;4.40;99.90;;;;;;5034139;28;20033;-72
2021/11/05 06:12:46;;;;;;;16.15;11.30;;;4.40;99.90;;;;;;5032008;28;20534;-72
2021/11/05 06:15:17;;;;;;;14.73;10.82;;;4.40;99.90;;;;;;5044951;28;20052;-72
2021/11/05 06:17:44;;;;;;;15.35;10.77;;;4.40;99.90;;;;;;5033751;28;20041;-72
2021/11/05 06:20:17;;;;;;;13.77;10.00;;;4.40;99.90;;;;;;5034505;28;20435;-72
2021/11/05 06:22:49;;;;;;;15.75;10.27;;;4.40;99.90;;;;;;5051173;28;20045;-72
2021/11/05 06:25:22;;;;;;;14.68;10.02;;;4.40;99.90;;;;;;5033352;28;20049;-72
2021/11/05 06:27:49;;;;;;;14.73;9.52;;;4.40;99.90;;;;;;5051444;28;20496;-72
2021/11/05 06:30:16;;;;;;;13.00;9.70;;;4.40;99.90;;;;;;5032513;28;20508;-72
2021/11/05 06:32:43;;;;;;;14.13;9.75;;;4.40;99.90;;;;;;5030750;28;20045;-72
2021/11/05 06:35:15;;;;;;;14.43;10.00;;;4.40;99.90;;;;;;5016489;28;20508;-72
2021/11/05 06:37:48;;;;;;;15.05;10.07;;;4.40;99.90;;;;;;5033597;28;20060;-72
2021/11/05 06:40:15;;;;;;;15.65;10.20;;;4.50;99.90;;;;;;5050323;28;20423;-72
2021/11/05 06:42:47;;;;;;;12.07;8.93;;;4.50;99.90;;;;;;5017955;28;20380;-72
2021/11/05 06:45:20;;;;;;;12.60;8.93;;;4.50;99.90;;;;;;5032911;28;20048;-72
2021/11/05 06:47:47;;;;;;;13.80;9.40;;;4.50;99.90;;;;;;5033607;28;20083;-72
2021/11/05 06:50:14;;;;;;;13.20;10.13;;;4.50;99.90;;;;;;5033206;28;20048;-72
2021/11/05 06:52:46;;;;;;;16.20;10.38;;;4.50;99.90;;;;;;5033386;28;20457;-72
2021/11/05 06:55:18;;;;;;;15.05;10.23;;;4.50;99.90;;;;;;5049777;28;20044;-72
2021/11/05 06:57:50;;;;;;;14.20;9.27;;;4.50;99.90;;;;;;5053160;28;20051;-72
2021/11/05 07:00:17;;;;;;;13.70;8.88;;;4.50;99.90;;;;;;5053243;28;20051;-72
2021/11/05 07:02:44;;;;;;;13.30;8.73;;;4.50;99.90;;;;;;5036318;28;20044;-72
2021/11/05 07:05:12;;;;;;;14.52;10.05;;;4.60;99.90;;;;;;5053226;28;20036;-72
2021/11/05 07:07:44;;;;;;;15.00;9.70;;;4.60;99.90;;;;;;5040711;28;20096;-72
2021/11/05 07:10:12;;;;;;;12.73;9.23;;;4.60;99.90;;;;;;5030590;28;20055;-72
2021/11/05 07:12:40;;;;;;;12.45;8.88;;;4.70;99.90;;;;;;5033040;28;20051;-72
2021/11/05 07:15:12;;;;;;;12.75;9.18;;;4.70;99.90;;;;;;5050716;28;20047;-72
2021/11/05 07:17:44;;;;;;;15.38;10.02;;;4.70;99.90;;;;;;5050536;28;20041;-72
2021/11/05 07:20:16;;;;;;;12.80;9.43;;;4.70;99.90;;;;;;5050893;28;20045;-72
2021/11/05 07:22:45;;;;;;;13.20;9.50;;;4.80;99.90;;;;;;5032505;28;20037;-72
2021/11/05 07:25:16;;;;;;;13.68;9.07;;;4.80;99.90;;;;;;5050219;28;20399;-72
2021/11/05 07:27:44;;;;;;;12.80;9.77;;;4.80;99.90;;;;;;5050561;28;20045;-71
2021/11/05 07:30:13;;;;;;;13.55;9.50;;;4.80;99.90;;;;;;5050570;28;20103;-72
2021/11/05 07:32:46;;;;;;;12.93;9.55;;;4.80;99.90;;;;;;5032721;28;20044;-72
2021/11/05 07:35:16;;;;;;;12.18;9.13;;;4.80;99.90;;;;;;5032533;28;20040;-71
2021/11/05 07:37:43;;;;;;;13.25;9.35;;;4.80;99.90;;;;;;5050616;28;20044;-71
2021/11/05 07:40:11;;;;;;;12.55;9.30;;;4.80;99.90;;;;;;5050387;28;20042;-72
2021/11/05 07:42:44;;;;;;;11.95;8.98;;;4.80;99.90;;;;;;5036613;28;20426;-71
2021/11/05 07:45:17;;;;;;;13.68;9.25;;;4.90;99.90;;;;;;5036223;28;20116;-72
2021/11/05 07:47:46;;;;;;;15.82;9.00;;;5.00;99.90;;;;;;5036883;28;20029;-72
2021/11/05 07:50:19;;;;;;;13.25;9.23;;;5.10;99.90;;;;;;5036705;28;20423;-72
2021/11/05 07:52:51;;;;;;;12.23;9.00;;;5.20;99.90;;;;;;5054723;28;20408;-73
2021/11/05 07:55:25;;;;;;;12.95;8.80;;;5.20;99.90;;;;;;5028559;28;20049;-72
2021/11/05 07:57:57;;;;;;;11.20;8.68;;;5.30;99.90;;;;;;5036508;28;20041;-73
2021/11/05 08:00:25;;;;;;;12.65;8.90;;;5.30;99.90;;;;;;5036478;28;20144;-72
2021/11/05 08:02:51;;;;;;;14.48;9.25;;;5.40;99.90;;;;;;5036362;28;20829;-72
2021/11/05 08:05:23;;;;;;;11.75;8.82;;;5.50;99.90;;;;;;5036380;28;20040;-72
2021/11/05 08:07:55;;;;;;;12.73;9.50;;;5.60;99.90;;;;;;5036965;28;20056;-72
2021/11/05 08:10:27;;;;;;;13.85;8.50;;;5.70;99.90;;;;;;5038560;28;20041;-72
2021/11/05 08:12:54;;;;;;;13.07;8.88;;;5.70;99.90;;;;;;5036026;28;20045;-72
2021/11/05 08:15:26;;;;;;;12.18;8.70;;;5.80;99.90;;;;;;5019307;28;20492;-73
2021/11/05 08:17:53;;;;;;;12.30;8.77;;;5.80;99.90;;;;;;5053790;28;20037;-72
2021/11/05 08:20:25;;;;;;;14.05;9.07;;;5.90;99.90;;;;;;5019700;28;20041;-72
2021/11/05 08:22:52;;;;;;;11.25;8.40;;;6.00;99.90;;;;;;5053978;28;20072;-72
2021/11/05 08:25:26;;;;;;;12.15;9.05;;;6.10;99.90;;;;;;5035105;28;20483;-72
2021/11/05 08:27:59;;;;;;;11.65;8.18;;;6.00;99.90;;;;;;5035134;28;20128;-72
2021/11/05 08:30:27;;;;;;;9.77;7.85;;;6.00;99.90;;;;;;5033339;28;20120;-72
2021/11/05 08:33:00;;;;;;;9.63;7.63;;;6.00;99.90;;;;;;5029671;28;20032;-71
2021/11/05 08:35:32;;;;;;;10.68;7.63;;;6.10;99.90;;;;;;4999941;28;20488;-72
2021/11/05 08:38:00;;;;;;;10.70;7.95;;;6.10;99.90;;;;;;5016161;28;20116;-71
2021/11/05 08:40:32;;;;;;;10.68;7.50;;;6.20;99.90;;;;;;5038222;28;20128;-72
2021/11/05 08:42:59;;;;;;;10.02;8.10;;;6.20;99.90;;;;;;5053253;28;20041;-72
2021/11/05 08:45:30;;;;;;;11.57;8.43;;;6.20;99.90;;;;;;5035145;28;20041;-72
2021/11/05 08:48:03;;;;;;;11.20;7.85;;;6.30;99.90;;;;;;5053318;28;20140;-72
2021/11/05 08:50:35;;;;;;;10.20;7.17;;;6.40;99.90;;;;;;5036998;28;20470;-72
2021/11/05 08:53:07;;;;;;;8.57;6.65;;;6.40;99.90;;;;;;5070765;28;20100;-71
2021/11/05 08:55:39;;;;;;;9.95;7.72;;;6.40;99.90;;;;;;5036143;28;20108;-72
2021/11/05 08:58:11;;;;;;;9.20;6.90;;;6.40;99.90;;;;;;5067865;28;20132;-72
2021/11/05 09:00:43;;;;;;;9.25;6.57;;;6.40;99.90;;;;;;5053349;28;20075;-72
2021/11/05 09:03:15;;;;;;;8.48;6.13;;;6.40;99.90;;;;;;5035745;28;20410;-72
2021/11/05 09:05:47;;;;;;;8.65;6.05;;;6.40;99.90;;;;;;5067841;28;20092;-72
2021/11/05 09:08:14;;;;;;;8.48;6.47;;;6.40;99.90;;;;;;5051369;28;20068;-72
2021/11/05 09:10:46;;;;;;;7.75;5.90;;;6.40;99.90;;;;;;5067976;28;20589;-72
2021/11/05 09:13:17;;;;;;;8.80;6.30;;;6.40;99.90;;;;;;5052663;28;20051;-72
2021/11/05 09:15:44;;;;;;;11.68;6.65;;;6.40;99.90;;;;;;5052843;28;20064;-72
2021/11/05 09:18:11;;;;;;;9.02;6.30;;;6.40;99.90;;;;;;5051584;28;20132;-72
2021/11/05 09:20:43;;;;;;;9.50;7.10;;;6.40;99.90;;;;;;5052926;28;20503;-72
2021/11/05 09:23:15;;;;;;;11.38;8.30;;;6.40;99.90;;;;;;5050495;28;20140;-72
2021/11/05 09:25:47;;;;;;;8.65;6.43;;;6.50;99.90;;;;;;5034813;28;20388;-72
2021/11/05 09:28:13;;;;;;;8.77;6.55;;;6.60;99.90;;;;;;5051322;28;20045;-72
2021/11/05 09:30:40;;;;;;;8.45;6.10;;;6.70;99.90;;;;;;5051519;28;20048;-72
2021/11/05 09:33:12;;;;;;;7.65;5.75;;;6.80;99.90;;;;;;5052642;28;20047;-72
2021/11/05 09:35:45;;;;;;;14.25;10.77;;;6.90;99.90;;;;;;5052522;28;20491;-72
2021/11/05 09:38:17;;;;;;;10.18;6.90;;;7.00;99.90;;;;;;5052539;28;20063;-72
2021/11/05 09:40:51;;;;;;;9.50;6.82;;;7.00;99.90;;;;;;5036023;28;20041;-71
2021/11/05 09:43:23;;;;;;;8.10;6.35;;;7.00;99.90;;;;;;5053073;28;20046;-72
2021/11/05 09:45:51;;;;;;;9.20;6.97;;;7.10;99.90;;;;;;5051282;28;20136;-72
2021/11/05 09:48:23;;;;;;;10.13;6.55;;;7.10;99.90;;;;;;5052368;28;20098;-72
2021/11/05 09:50:50;;;;;;;9.70;7.18;;;7.10;99.90;;;;;;5034550;28;20094;-72
2021/11/05 09:53:25;;;;;;;7.88;5.90;;;7.10;99.90;;;;;;5035371;28;20124;-72
2021/11/05 09:56:07;;;;;;;12.35;6.97;;;7.10;99.90;;;;;;5051981;28;20578;-72
2021/11/05 09:58:42;;;;;;;10.05;5.75;;;7.10;99.90;;;;;;5034039;28;20423;-72
2021/11/05 10:01:11;;;;;;;9.43;7.40;;;7.10;99.90;;;;;;5017961;28;20037;-72
2021/11/05 10:03:43;;;;;;;9.18;6.28;;;7.10;99.90;;;;;;5034744;28;20381;-72
2021/11/05 10:06:19;;;;;;;11.00;9.10;;;7.10;99.90;;;;;;5033706;28;20048;-72
2021/11/05 10:08:53;;;;;;;10.13;7.78;;;7.10;99.90;;;;;;5018200;28;20045;-72
2021/11/05 10:11:32;;;;;;;10.82;7.22;;;7.20;99.90;;;;;;5051949;28;20040;-72
2021/11/05 10:14:04;;;;;;;9.05;6.32;;;7.20;99.90;;;;;;5052389;28;20043;-72
2021/11/05 10:16:32;;;;;;;9.02;6.03;;;7.20;99.90;;;;;;5034311;28;20072;-72
2021/11/05 10:19:02;;;;;;;7.15;5.50;;;7.20;99.90;;;;;;5017627;28;20412;-72
2021/11/05 10:21:41;;;;;;;8.48;6.10;;;7.30;99.90;;;;;;5033834;28;20152;-73
2021/11/05 10:24:19;;;;;;;10.27;7.47;;;7.20;99.90;;;;;;5051188;28;20044;-72
2021/11/05 10:26:51;;;;;;;7.75;6.55;;;7.30;99.90;;;;;;5018037;28;20053;-72
2021/11/05 10:29:29;;;;;;;7.30;5.68;;;7.40;99.90;;;;;;5010662;28;20057;-72
2021/11/05 10:32:07;;;;;;;8.48;5.72;;;7.30;99.90;;;;;;5034730;28;20041;-72
2021/11/05 10:34:54;;;;;;;9.73;6.70;;;7.30;99.90;;;;;;5050883;28;20499;-72
2021/11/05 10:37:29;;;;;;;7.18;5.30;;;7.30;99.90;;;;;;5025411;28;20061;-72
2021/11/05 10:39:57;;;;;;;7.15;5.28;;;7.30;99.90;;;;;;5017259;28;20053;-72
2021/11/05 10:42:31;;;;;;;6.57;5.17;;;7.30;99.90;;;;;;5033889;28;20534;-72
2021/11/05 10:45:24;;;;;;;8.23;5.70;;;7.30;99.90;;;;;;5018265;28;20052;-73
2021/11/05 10:47:59;;;;;;;7.18;5.43;;;7.20;99.90;;;;;;5034349;28;20045;-72
2021/11/05 10:50:35;;;;;;;6.82;4.90;;;7.20;99.90;;;;;;5034005;28;20039;-72
2021/11/05 10:53:13;;;;;;;5.63;4.30;;;7.20;99.90;;;;;;5034156;28;20064;-72
2021/11/05 10:55:50;;;;;;;6.15;4.82;;;7.20;99.90;;;;;;5032469;28;20103;-72
2021/11/05 10:58:19;;;;;;;6.18;4.47;;;7.20;99.90;;;;;;5033371;28;20497;-72
2021/11/05 11:00:47;;;;;;;7.60;5.45;;;7.10;99.90;;;;;;5032815;28;20523;-72
2021/11/05 11:03:26;;;;;;;7.70;4.75;;;7.10;99.90;;;;;;5017392;28;20056;-72
2021/11/05 11:05:53;;;;;;;;;;;7.10;99.90;;;;;;5051342;28;20044;-72
2021/11/05 11:08:23;;;;;;;6.95;5.47;;;7.10;99.90;;;;;;5033424;28;20400;-72
2021/11/05 11:10:53;;;;;;;6.57;4.57;;;7.10;99.90;;;;;;5032705;28;20072;-72
2021/11/05 11:13:27;;;;;;;6.07;4.40;;;7.10;99.90;;;;;;5016558;28;20135;-73
2021/11/05 11:15:55;;;;;;;5.90;4.45;;;7.10;99.90;;;;;;5032257;28;20048;-72
2021/11/05 11:18:28;;;;;;;6.63;4.40;;;7.20;99.90;;;;;;5029145;28;20049;-72
2021/11/05 11:21:00;;;;;;;7.03;4.95;;;7.30;99.90;;;;;;5021910;28;20044;-72
2021/11/05 11:23:27;;;;;;;5.70;4.43;;;7.30;99.90;;;;;;5041771;28;20081;-72
2021/11/05 11:25:59;;;;;;;5.85;4.45;;;7.40;99.90;;;;;;5048358;28;20036;-72
2021/11/05 11:28:31;;;;;;;4.95;3.80;;;7.40;99.90;;;;;;5033099;28;20402;-72
2021/11/05 11:31:03;;;;;;;5.80;4.18;;;7.50;99.90;;;;;;5050421;28;20041;-73
2021/11/05 11:33:31;;;;;;;5.28;3.80;;;7.50;99.90;;;;;;5051016;28;20037;-72
2021/11/05 11:36:03;;;;;;;4.97;3.47;;;7.50;99.90;;;;;;5033601;28;20136;-72
2021/11/05 11:38:36;;;;;;;6.75;3.80;;;7.50;99.90;;;;;;5032836;28;20122;-72
2021/11/05 11:41:10;;;;;;;4.43;3.65;;;7.40;99.90;;;;;;5031366;28;20081;-72
2021/11/05 11:43:42;;;;;;;5.75;4.43;;;7.40;99.90;;;;;;5033594;28;20056;-72
2021/11/05 11:46:09;;;;;;;5.25;3.45;;;7.40;99.90;;;;;;5045019;28;20045;-73
2021/11/05 11:48:47;;;;;;;7.65;4.30;;;7.40;99.90;;;;;;5021069;28;20611;-72
2021/11/05 11:51:20;;;;;;;4.45;3.47;;;7.40;99.90;;;;;;5031176;28;20444;-72
2021/11/05 11:54:02;;;;;;;5.43;3.95;;;7.40;99.90;;;;;;5050733;28;20103;-72
2021/11/05 11:56:37;;;;;;;5.40;4.18;;;7.40;99.90;;;;;;5032619;28;20041;-72
2021/11/05 11:59:11;;;;;;;4.18;3.35;;;7.30;99.90;;;;;;5016610;28;20045;-73
2021/11/05 12:01:40;;;;;;;;;;;7.30;99.90;;;;;;5032916;28;20460;-73
2021/11/05 12:04:15;;;;;;;4.38;3.58;;;7.30;99.90;;;;;;5045671;28;20338;-73
2021/11/05 12:06:52;;;;;;;4.57;3.53;;;7.30;99.90;;;;;;5044755;28;20040;-72
2021/11/05 12:09:38;;;;;;;5.20;3.92;;;7.30;99.90;;;;;;5024423;28;20037;-72
2021/11/05 12:12:20;;;;;;;7.50;3.80;;;7.30;99.90;;;;;;5016500;28;20403;-72
2021/11/05 12:15:01;;;;;;;5.15;3.92;;;7.30;99.90;;;;;;5032705;28;20049;-72
2021/11/05 12:17:51;;;;;;;6.07;3.63;;;7.40;99.90;;;;;;5028213;28;20080;-73
2021/11/05 12:20:37;;;;;;;5.05;3.90;;;7.40;99.90;;;;;;5028333;28;20108;-72
2021/11/05 12:23:09;;;;;;;17.67;11.23;;;7.40;99.90;;;;;;5016437;28;20041;-72
2021/11/05 12:25:42;;;;;;;7.45;5.78;;;7.40;99.90;;;;;;5050070;28;20335;-72
2021/11/05 12:28:26;;;;;;;6.68;4.78;;;7.40;99.90;;;;;;5050929;28;20127;-72
2021/11/05 12:31:14;;;;;;;5.63;4.32;;;7.50;99.90;;;;;;5054550;28;20124;-72
2021/11/05 12:33:46;;;;;;;8.03;6.30;;;7.50;99.90;;;;;;5036419;28;20140;-72
2021/11/05 12:36:13;;;;;;;9.93;8.02;;;7.60;99.90;;;;;;5035811;28;20495;-72
2021/11/05 12:39:03;;;;;;;4.80;3.67;;;7.70;99.90;;;;;;5054102;28;20069;-73
2021/11/05 12:41:30;;;;;;;12.93;9.05;;;7.70;99.90;;;;;;5053808;28;20068;-72
2021/11/05 12:44:13;;;;;;;12.70;7.90;;;7.70;99.90;;;;;;5036649;28;20590;-72
2021/11/05 12:46:46;;;;;;;5.22;3.85;;;7.70;99.90;;;;;;5035718;28;20045;-73
2021/11/05 12:49:18;;;;;;;;;;;7.70;99.90;;;;;;5054038;28;20068;-72
2021/11/05 12:51:51;;;;;;;18.10;11.10;;;7.60;99.90;;;;;;5053133;28;19966;-72
2021/11/05 12:54:25;;;;;;;;;;;7.60;99.90;;;;;;5034102;28;20537;-73
2021/11/05 12:56:55;;;;;;;6.53;4.22;;;7.60;99.90;;;;;;5034298;28;19964;-72
2021/11/05 12:59:27;;;;;;;4.20;3.40;;;7.60;99.90;;;;;;5035548;28;20140;-71
2021/11/05 13:02:02;;;;;;;5.93;4.22;;;7.60;99.90;;;;;;5051180;28;20053;-72
2021/11/05 13:04:40;;;;;;;12.68;6.97;;;7.70;99.90;;;;;;5034499;28;20049;-74
2021/11/05 13:07:13;;;;;;;5.22;3.55;;;7.70;99.90;;;;;;5035246;28;20051;-73
2021/11/05 13:09:42;;;;;;;8.82;6.25;;;7.80;99.90;;;;;;5034687;28;20049;-73